| time (UTC) | temp C | wind direction | speed KPH | gust KPH | rain 1hr cm | rain 24hr cm | rain mn cm | humidity % | barometer mb |
| 20260505083204 | 11 | 4 | 3.2 | 12.9 | 0.00 | 0.00 | 0.00 | 57 | 1006.1 |
| 20260505081705 | 11 | 28 | 3.2 | 11.3 | 0.00 | 0.00 | 0.00 | 59 | 1006.0 |
| 20260505080704 | 11 | 34 | 3.2 | 8.0 | 0.00 | 0.00 | 0.00 | 58 | 1006.3 |
| 20260505074205 | 12 | 14 | 3.2 | 8.0 | 0.00 | 0.00 | 0.00 | 53 | 1006.7 |
| 20260505073205 | 12 | 10 | 4.8 | 20.9 | 0.00 | 0.00 | 0.00 | 50 | 1006.3 |
| 20260505071704 | 13 | 331 | 6.4 | 19.3 | 0.00 | 0.00 | 0.00 | 46 | 1005.9 |
| 20260505070704 | 13 | 2 | 3.2 | 11.3 | 0.00 | 0.00 | 0.00 | 46 | 1005.8 |
| 20260505064704 | 13 | 353 | 4.8 | 16.1 | 0.00 | 0.00 | 0.00 | 46 | 1005.0 |
| 20260505064205 | 13 | 341 | 3.2 | 19.3 | 0.00 | 0.00 | 0.00 | 46 | 1004.8 |
| 20260505063205 | 13 | 346 | 4.8 | 12.9 | 0.00 | 0.00 | 0.00 | 45 | 1004.5 |
| 20260505061204 | 13 | 351 | 4.8 | 19.3 | 0.00 | 0.00 | 0.00 | 44 | 1004.6 |
| 20260505060704 | 13 | 341 | 6.4 | 19.3 | 0.00 | 0.00 | 0.00 | 43 | 1004.6 |
| 20260505060205 | 14 | 9 | 8.0 | 27.4 | 0.00 | 0.00 | 0.00 | 42 | 1004.4 |
| 20260505053704 | 15 | 347 | 8.0 | 19.3 | 0.00 | 0.00 | 0.00 | 43 | 1004.4 |
| 20260505053205 | 15 | 348 | 8.0 | 25.7 | 0.00 | 0.00 | 0.00 | 44 | 1004.2 |
| 20260505051704 | 16 | 338 | 9.7 | 22.5 | 0.00 | 0.00 | 0.00 | 43 | 1003.7 |
| 20260505051204 | 16 | 330 | 8.0 | 25.7 | 0.00 | 0.00 | 0.00 | 42 | 1003.5 |
| 20260505050704 | 16 | 0 | 8.0 | 22.5 | 0.00 | 0.00 | 0.00 | 42 | 1003.1 |
| 20260505050204 | 16 | 345 | 11.3 | 25.7 | 0.00 | 0.00 | 0.00 | 41 | 1002.6 |
| 20260505041204 | 18 | 350 | 8.0 | 20.9 | 0.00 | 0.00 | 0.00 | 42 | 1001.6 |
| 20260505040704 | 18 | 337 | 4.8 | 19.3 | 0.00 | 0.00 | 0.00 | 42 | 1001.7 |
| 20260505040204 | 18 | 340 | 6.4 | 20.9 | 0.00 | 0.00 | 0.00 | 41 | 1001.7 |
| 20260505034204 | 19 | 343 | 4.8 | 14.5 | 0.00 | 0.00 | 0.00 | 40 | 1001.4 |
| 20260505033704 | 19 | 5 | 4.8 | 16.1 | 0.00 | 0.00 | 0.00 | 40 | 1001.4 |
| 20260505033204 | 20 | 6 | 4.8 | 16.1 | 0.00 | 0.00 | 0.00 | 40 | 1001.2 |
| 20260505031204 | 20 | 354 | 8.0 | 20.9 | 0.00 | 0.00 | 0.00 | 40 | 1000.9 |
| 20260505030704 | 20 | 338 | 4.8 | 14.5 | 0.00 | 0.00 | 0.00 | 42 | 1000.9 |
| 20260505030204 | 20 | 345 | 4.8 | 16.1 | 0.00 | 0.00 | 0.00 | 44 | 1000.7 |
| 20260505024704 | 20 | 335 | 4.8 | 14.5 | 0.00 | 0.00 | 0.00 | 54 | 1000.6 |
| 20260505024204 | 20 | 344 | 9.7 | 16.1 | 0.00 | 0.00 | 0.00 | 57 | 1000.5 |
| 20260505023704 | 20 | 346 | 8.0 | 19.3 | 0.00 | 0.00 | 0.00 | 60 | 1000.3 |
| 20260505023204 | 19 | 184 | 0.0 | 0.0 | 0.00 | 0.00 | 0.00 | 60 | 999.8 |
| 20260505021704 | 20 | 184 | 0.0 | 0.0 | 0.00 | 0.00 | 0.00 | 59 | 999.5 |
| 20260505014704 | 21 | 184 | 0.0 | 0.0 | 0.00 | 0.00 | 0.00 | 57 | 999.0 |
| 20260505013704 | 21 | 184 | 0.0 | 0.0 | 0.00 | 0.00 | 0.00 | 55 | 998.9 |
| 20260505011703 | 22 | 184 | 0.0 | 0.0 | 0.00 | 0.00 | 0.00 | 52 | 998.7 |
| 20260505011205 | 22 | 184 | 0.0 | 0.0 | 0.00 | 0.00 | 0.00 | 52 | 998.7 |
| 20260505010204 | 23 | 184 | 0.0 | 1.6 | 0.00 | 0.00 | 0.00 | 51 | 998.6 |
| 20260505004703 | 24 | 184 | 1.6 | 4.8 | 0.00 | 0.00 | 0.00 | 51 | 998.4 |
| 20260505004203 | 24 | 185 | 1.6 | 4.8 | 0.00 | 0.00 | 0.00 | 51 | 998.3 |
| 20260505001211 | 25 | 184 | 1.6 | 4.8 | 0.00 | 0.00 | 0.00 | 48 | 998.3 |
| 20260505000704 | 25 | 181 | 3.2 | 8.0 | 0.00 | 0.00 | 0.00 | 48 | 998.1 |
| 20260505000204 | 25 | 169 | 3.2 | 9.7 | 0.00 | 0.00 | 0.00 | 47 | 998.1 |
| 20260504234704 | 26 | 172 | 3.2 | 11.3 | 0.00 | 0.00 | 0.00 | 46 | 998.1 |
| 20260504234204 | 26 | 175 | 4.8 | 11.3 | 0.00 | 0.00 | 0.00 | 45 | 998.1 |
| 20260504233704 | 26 | 191 | 4.8 | 11.3 | 0.00 | 0.00 | 0.00 | 44 | 998.1 |
| 20260504233204 | 26 | 194 | 3.2 | 14.5 | 0.00 | 0.00 | 0.00 | 44 | 998.1 |
| 20260504231704 | 26 | 192 | 4.8 | 16.1 | 0.00 | 0.00 | 0.00 | 42 | 998.0 |
| 20260504230704 | 27 | 185 | 4.8 | 11.3 | 0.00 | 0.00 | 0.00 | 41 | 998.0 |
| 20260504224704 | 27 | 191 | 4.8 | 11.3 | 0.00 | 0.00 | 0.00 | 41 | 998.0 |
| 20260504224203 | 27 | 183 | 4.8 | 11.3 | 0.00 | 0.00 | 0.00 | 42 | 998.0 |
| 20260504223704 | 27 | 209 | 1.6 | 4.8 | 0.00 | 0.00 | 0.00 | 44 | 998.1 |
| 20260504223203 | 27 | 184 | 3.2 | 12.9 | 0.00 | 0.00 | 0.00 | 42 | 998.0 |
| 20260504221204 | 27 | 214 | 4.8 | 14.5 | 0.00 | 0.00 | 0.00 | 41 | 998.0 |
| 20260504220703 | 27 | 202 | 6.4 | 19.3 | 0.00 | 0.00 | 0.00 | 39 | 998.0 |
| 20260504220204 | 28 | 180 | 8.0 | 19.3 | 0.00 | 0.00 | 0.00 | 39 | 998.0 |
| 20260504214703 | 28 | 182 | 8.0 | 14.5 | 0.00 | 0.00 | 0.00 | 38 | 998.2 |